Time;durP1;ratioP1;P1;durP2;ratioP2;P2;SDS_P1;SDS_P2;PMS_P1;PMS_P2;Temp;Humidity;BMP_temperature;BMP_pressure;BME280_temperature;BME280_humidity;BME280_pressure;Samples;Min_cycle;Max_cycle;Signal;HPM_P1;HPM_P2
2023/11/01 00:01:41;;;;;;;;;;;10.90;75.70;;;;;;5113871;28;20022;-69
2023/11/01 00:04:07;;;;;;;;;;;10.80;75.60;;;;;;5096512;28;19916;-68
2023/11/01 00:06:33;;;;;;;;;;;10.80;75.30;;;;;;5094956;28;19934;-69
2023/11/01 00:08:59;;;;;;;;;;;10.80;75.10;;;;;;5115045;28;19911;-69
2023/11/01 00:11:25;;;;;;;;;;;10.80;75.20;;;;;;5114835;28;19919;-69
2023/11/01 00:13:51;;;;;;;;;;;10.80;75.20;;;;;;5116452;28;20138;-70
2023/11/01 00:16:17;;;;;;;;;;;10.80;75.20;;;;;;5116583;28;19998;-68
2023/11/01 00:18:43;;;;;;;;;;;10.80;75.20;;;;;;5114306;28;19950;-68
2023/11/01 00:21:09;;;;;;;;;;;10.90;75.30;;;;;;5094234;28;20391;-68
2023/11/01 00:23:35;;;;;;;;;;;10.90;75.10;;;;;;5109567;28;19912;-69
2023/11/01 00:26:01;;;;;;;;;;;11.00;75.00;;;;;;5097113;28;19923;-69
2023/11/01 00:28:27;;;;;;;;;;;11.00;75.00;;;;;;5095170;28;19920;-69
2023/11/01 00:30:53;;;;;;;;;;;11.00;74.90;;;;;;5095408;28;19920;-69
2023/11/01 00:33:19;;;;;;;;;;;11.00;74.40;;;;;;5098266;28;19919;-69
2023/11/01 00:35:45;;;;;;;;;;;11.00;75.10;;;;;;5114686;27;20497;-69
2023/11/01 00:38:11;;;;;;;;;;;11.10;75.30;;;;;;5095385;28;19916;-69
2023/11/01 00:40:36;;;;;;;;;;;11.00;75.40;;;;;;5094867;28;20415;-69
2023/11/01 00:43:04;;;;;;;;;;;11.00;75.80;;;;;;5114946;28;20010;-69
2023/11/01 00:45:29;;;;;;;;;;;11.00;75.90;;;;;;5114748;28;20120;-70
2023/11/01 00:47:55;;;;;;;;;;;11.00;76.10;;;;;;5114738;28;20392;-68
2023/11/01 00:50:21;;;;;;;;;;;10.90;76.70;;;;;;5115123;28;19912;-68
2023/11/01 00:52:47;;;;;;;;;;;10.90;76.90;;;;;;5112842;28;20357;-68
2023/11/01 00:55:13;;;;;;;;;;;10.90;77.10;;;;;;5094163;28;19918;-68
2023/11/01 00:57:39;;;;;;;;;;;10.90;77.50;;;;;;5094486;28;19922;-68
2023/11/01 01:00:06;;;;;;;;;;;10.80;77.50;;;;;;5113049;28;20388;-68
2023/11/01 01:02:32;;;;;;;;;;;10.70;77.50;;;;;;5097669;28;20357;-68
2023/11/01 01:04:58;;;;;;;;;;;10.60;76.90;;;;;;5104838;28;19923;-68
2023/11/01 01:07:24;;;;;;;;;;;10.70;77.80;;;;;;5095395;28;19920;-69
2023/11/01 01:09:50;;;;;;;;;;;10.60;77.70;;;;;;5097312;28;19924;-68
2023/11/01 01:12:16;;;;;;;;;;;10.50;77.70;;;;;;5115242;28;19926;-68
2023/11/01 01:14:42;;;;;;;;;;;10.50;77.70;;;;;;5115344;28;20383;-68
2023/11/01 01:17:07;;;;;;;;;;;10.50;77.50;;;;;;5114249;28;20030;-68
2023/11/01 01:19:33;;;;;;;;;;;10.40;77.40;;;;;;5108945;28;20307;-69
2023/11/01 01:21:59;;;;;;;;;;;10.40;78.40;;;;;;5094546;28;20424;-68
2023/11/01 01:24:25;;;;;;;;;;;10.40;77.50;;;;;;5093715;28;19926;-69
2023/11/01 01:26:51;;;;;;;;;;;10.30;77.40;;;;;;5076517;28;19930;-69
2023/11/01 01:29:17;;;;;;;;;;;10.30;77.30;;;;;;5093218;28;20011;-67
2023/11/01 01:31:42;;;;;;;;;;;10.30;77.10;;;;;;5094050;28;19924;-69
2023/11/01 01:34:08;;;;;;;;;;;10.30;77.00;;;;;;5093053;28;19999;-68
2023/11/01 01:36:34;;;;;;;;;;;10.30;76.90;;;;;;5076443;28;20001;-68
2023/11/01 01:39:00;;;;;;;;;;;10.40;76.90;;;;;;5093122;28;19915;-68
2023/11/01 01:41:26;;;;;;;;;;;10.40;77.10;;;;;;5093790;28;19926;-68
2023/11/01 01:43:52;;;;;;;;;;;10.40;77.00;;;;;;5093321;28;20007;-68
2023/11/01 01:46:19;;;;;;;;;;;10.50;76.90;;;;;;5092945;28;19927;-68
2023/11/01 01:48:45;;;;;;;;;;;10.50;76.70;;;;;;5093160;28;20442;-68
2023/11/01 01:51:12;;;;;;;;;;;10.50;76.70;;;;;;5075681;28;19920;-68
2023/11/01 01:53:57;;;;;;;;;;;10.50;76.90;;;;;;5094414;28;19923;-69
2023/11/01 01:56:24;;;;;;;;;;;10.50;77.00;;;;;;5093096;28;20311;-69
2023/11/01 01:58:51;;;;;;;;;;;10.60;77.10;;;;;;5093166;28;19920;-69
2023/11/01 02:01:18;;;;;;;;;;;10.50;76.70;;;;;;5092313;28;20003;-69
2023/11/01 02:03:44;;;;;;;;;;;10.60;77.60;;;;;;5093032;28;19912;-69
2023/11/01 02:06:10;;;;;;;;;;;10.50;77.90;;;;;;5092425;28;20293;-69
2023/11/01 02:08:36;;;;;;;;;;;10.60;78.00;;;;;;5093727;28;19919;-68
2023/11/01 02:11:03;;;;;;;;;;;10.50;77.50;;;;;;5092191;28;20339;-69
2023/11/01 02:13:29;;;;;;;;;;;10.60;78.00;;;;;;5092851;28;19938;-69
2023/11/01 02:15:55;;;;;;;;;;;10.60;78.00;;;;;;5075437;28;19920;-69
2023/11/01 02:18:21;;;;;;;;;;;10.60;78.10;;;;;;5092686;28;20292;-68
2023/11/01 02:20:48;;;;;;;;;;;10.60;78.00;;;;;;5093259;28;19920;-69
2023/11/01 02:23:15;;;;;;;;;;;10.70;78.50;;;;;;5093898;28;19919;-69
2023/11/01 02:25:43;;;;;;;;;;;10.70;78.30;;;;;;5093673;28;19920;-69
2023/11/01 02:28:11;;;;;;;;;;;10.70;78.40;;;;;;5093679;28;19935;-69
2023/11/01 02:30:39;;;;;;;;;;;10.70;78.50;;;;;;5093105;28;20255;-69
2023/11/01 02:33:06;;;;;;;;;;;10.70;78.30;;;;;;5093425;28;19991;-69
2023/11/01 02:35:32;;;;;;;;;;;10.70;78.30;;;;;;5092200;28;19912;-69
2023/11/01 02:37:58;;;;;;;;;;;10.70;78.30;;;;;;5093216;28;19939;-68
2023/11/01 02:40:24;;;;;;;;;;;10.70;78.50;;;;;;5092929;28;19927;-68
2023/11/01 02:42:56;;;;;;;;;;;10.70;78.80;;;;;;5092205;28;20006;-69
2023/11/01 02:45:22;;;;;;;;;;;10.60;78.90;;;;;;5093208;28;19923;-69
2023/11/01 02:47:48;;;;;;;;;;;10.60;78.80;;;;;;5075248;28;20050;-69
2023/11/01 02:50:16;;;;;;;;;;;10.60;78.90;;;;;;5092614;28;19928;-69
2023/11/01 02:52:42;;;;;;;;;;;10.60;78.70;;;;;;5092103;28;19923;-69
2023/11/01 02:55:20;;;;;;;;;;;10.50;78.40;;;;;;5092030;28;19924;-68
2023/11/01 02:57:46;;;;;;;;;;;10.60;78.80;;;;;;5092248;28;19920;-68
2023/11/01 03:00:18;;;;;;;;;;;10.60;78.90;;;;;;5074479;28;19920;-69
2023/11/01 03:03:03;;;;;;;;;;;10.60;78.10;;;;;;5093112;28;19916;-69
2023/11/01 03:05:29;;;;;;;;;;;10.60;78.50;;;;;;5091827;28;19949;-69
2023/11/01 03:07:55;;;;;;;;;;;10.60;78.50;;;;;;5091531;28;19927;-69
2023/11/01 03:10:21;;;;;;;;;;;10.60;78.50;;;;;;5091234;28;19916;-69
2023/11/01 03:12:46;;;;;;;;;;;10.70;78.80;;;;;;5092957;28;20357;-68
2023/11/01 03:15:12;;;;;;;;;;;10.60;78.40;;;;;;5092938;28;19922;-69
2023/11/01 03:17:39;;;;;;;;;;;10.70;78.50;;;;;;5091925;28;19920;-68
2023/11/01 03:20:07;;;;;;;;;;;10.60;78.20;;;;;;5074317;28;20295;-68
2023/11/01 03:22:33;;;;;;;;;;;10.60;78.30;;;;;;5091877;28;19959;-69
2023/11/01 03:25:00;;;;;;;;;;;10.60;78.40;;;;;;5091826;28;20007;-69
2023/11/01 03:27:26;;;;;;;;;;;10.60;77.80;;;;;;5095086;28;19923;-68
2023/11/01 03:29:52;;;;;;;;;;;10.60;78.30;;;;;;5095819;28;19956;-68
2023/11/01 03:32:19;;;;;;;;;;;10.50;78.20;;;;;;5096840;28;20000;-69
2023/11/01 03:34:45;;;;;;;;;;;10.60;78.30;;;;;;5095862;28;19962;-69
2023/11/01 03:37:11;;;;;;;;;;;10.50;77.70;;;;;;5095663;28;20027;-68
2023/11/01 03:39:37;;;;;;;;;;;10.50;78.00;;;;;;5078644;28;19970;-69
2023/11/01 03:42:04;;;;;;;;;;;10.50;78.00;;;;;;5096721;28;19937;-68
2023/11/01 03:44:32;;;;;;;;;;;10.50;78.10;;;;;;5095578;28;19912;-68
2023/11/01 03:47:09;;;;;;;;;;;10.50;77.80;;;;;;5095634;28;20076;-69
2023/11/01 03:49:35;;;;;;;;;;;10.50;77.70;;;;;;5095308;28;20365;-68
2023/11/01 03:52:02;;;;;;;;;;;10.50;77.80;;;;;;5096352;28;19920;-69
2023/11/01 03:54:29;;;;;;;;;;;10.50;77.60;;;;;;5096731;28;19916;-69
2023/11/01 03:56:55;;;;;;;;;;;10.50;77.50;;;;;;5078397;28;20010;-68
2023/11/01 03:59:21;;;;;;;;;;;10.50;77.60;;;;;;5078429;28;20002;-69
2023/11/01 04:01:47;;;;;;;;;;;10.40;77.70;;;;;;5096189;28;20318;-69
2023/11/01 04:04:12;;;;;;;;;;;10.40;77.60;;;;;;5095189;28;19942;-68
2023/11/01 04:06:38;;;;;;;;;;;10.40;77.50;;;;;;5094828;28;19923;-68
2023/11/01 04:09:06;;;;;;;;;;;10.40;77.50;;;;;;5094951;28;19916;-70
2023/11/01 04:11:32;;;;;;;;;;;10.40;77.00;;;;;;5077758;28;19951;-69
2023/11/01 04:13:58;;;;;;;;;;;10.30;77.10;;;;;;5078352;28;19947;-68
2023/11/01 04:16:24;;;;;;;;;;;10.30;77.70;;;;;;5096302;28;20004;-68
2023/11/01 04:18:50;;;;;;;;;;;10.20;77.60;;;;;;5096188;28;19962;-68
2023/11/01 04:21:16;;;;;;;;;;;10.10;77.60;;;;;;5095678;28;20502;-69
2023/11/01 04:23:42;;;;;;;;;;;10.00;77.50;;;;;;5077947;28;19916;-68
2023/11/01 04:26:08;;;;;;;;;;;10.00;77.50;;;;;;5095996;28;19920;-68
2023/11/01 04:28:35;;;;;;;;;;;9.90;77.30;;;;;;5095943;28;19916;-68
2023/11/01 04:31:01;;;;;;;;;;;9.80;77.30;;;;;;5093995;28;20022;-68
2023/11/01 04:33:27;;;;;;;;;;;9.70;77.40;;;;;;5094653;28;19935;-68
2023/11/01 04:35:53;;;;;;;;;;;9.70;77.50;;;;;;5095790;28;20364;-68
2023/11/01 04:38:20;;;;;;;;;;;9.70;77.60;;;;;;5095576;28;19955;-69
2023/11/01 04:40:47;;;;;;;;;;;9.60;77.30;;;;;;5095237;28;19923;-68
2023/11/01 04:43:13;;;;;;;;;;;9.60;76.40;;;;;;5094540;28;19920;-69
2023/11/01 04:45:38;;;;;;;;;;;9.60;76.90;;;;;;5094254;28;19919;-70
2023/11/01 04:48:04;;;;;;;;;;;9.60;77.00;;;;;;5095572;28;20010;-68
2023/11/01 04:50:31;;;;;;;;;;;9.60;76.70;;;;;;5093863;28;19916;-69
2023/11/01 04:52:57;;;;;;;;;;;9.50;76.60;;;;;;5094182;28;19927;-69
2023/11/01 04:55:23;;;;;;;;;;;9.50;76.50;;;;;;5095352;28;20432;-69
2023/11/01 04:57:50;;;;;;;;;;;9.50;76.70;;;;;;5095494;28;19924;-69
2023/11/01 05:00:16;;;;;;;;;;;9.40;76.60;;;;;;5093759;28;20337;-68
2023/11/01 05:03:00;;;;;;;;;;;9.40;76.00;;;;;;5094269;28;19916;-69
2023/11/01 05:05:26;;;;;;;;;;;9.40;76.40;;;;;;5093865;28;19970;-68
2023/11/01 05:07:52;;;;;;;;;;;9.40;76.30;;;;;;5095053;28;19920;-68
2023/11/01 05:10:18;;;;;;;;;;;9.30;76.40;;;;;;5093422;28;20369;-69
2023/11/01 05:12:44;;;;;;;;;;;9.30;76.10;;;;;;5094087;28;19991;-68
2023/11/01 05:15:10;;;;;;;;;;;9.20;75.80;;;;;;5095155;28;19961;-68
2023/11/01 05:17:36;;;;;;;;;;;9.10;75.30;;;;;;5076967;28;19912;-68
2023/11/01 05:20:04;;;;;;;;;;;9.20;75.70;;;;;;5093723;28;19942;-68
2023/11/01 05:22:30;;;;;;;;;;;9.10;74.70;;;;;;5093624;28;19916;-68
2023/11/01 05:24:56;;;;;;;;;;;9.10;74.70;;;;;;5093765;28;19969;-69
2023/11/01 05:27:21;;;;;;;;;;;9.10;75.60;;;;;;5093643;28;20029;-69
2023/11/01 05:29:47;;;;;;;;;;;9.10;75.70;;;;;;5094779;28;19916;-68
2023/11/01 05:32:13;;;;;;;;;;;9.00;75.60;;;;;;5094661;28;19916;-68
2023/11/01 05:34:40;;;;;;;;;;;9.00;76.20;;;;;;5093545;28;19915;-68
2023/11/01 05:37:09;;;;;;;;;;;8.90;76.00;;;;;;5093391;28;20010;-69
2023/11/01 05:39:35;;;;;;;;;;;8.90;76.40;;;;;;5094425;28;19922;-68
2023/11/01 05:42:01;;;;;;;;;;;8.90;76.60;;;;;;5092744;28;20360;-69
2023/11/01 05:44:27;;;;;;;;;;;9.00;76.10;;;;;;5093650;28;19916;-69
2023/11/01 05:46:53;;;;;;;;;;;9.00;75.70;;;;;;5094571;28;19927;-69
2023/11/01 05:52:04;;;;;;;;;;;8.90;75.90;;;;;;5094378;28;19982;-68
2023/11/01 05:54:29;;;;;;;;;;;8.80;75.50;;;;;;5094172;28;19916;-69
2023/11/01 05:56:55;;;;;;;;;;;8.80;76.10;;;;;;5093244;28;20403;-68
2023/11/01 05:59:21;;;;;;;;;;;8.70;76.10;;;;;;5093075;28;20002;-68
2023/11/01 06:01:47;;;;;;;;;;;8.70;76.40;;;;;;5092499;28;19995;-69
2023/11/01 06:04:13;;;;;;;;;;;8.70;76.30;;;;;;5092955;28;19957;-68
2023/11/01 06:06:39;;;;;;;;;;;8.70;76.20;;;;;;5094222;28;20915;-69
2023/11/01 06:09:05;;;;;;;;;;;8.70;76.10;;;;;;5075731;28;20266;-68
2023/11/01 06:11:31;;;;;;;;;;;8.70;75.90;;;;;;5092204;28;19924;-69
2023/11/01 06:13:57;;;;;;;;;;;8.80;75.70;;;;;;5093901;28;19942;-69
2023/11/01 06:16:23;;;;;;;;;;;8.80;75.50;;;;;;5092693;28;19920;-69
2023/11/01 06:18:49;;;;;;;;;;;8.90;75.50;;;;;;5092757;28;20356;-68
2023/11/01 06:21:15;;;;;;;;;;;9.00;75.30;;;;;;5093287;28;19952;-69
2023/11/01 06:23:41;;;;;;;;;;;9.00;75.20;;;;;;5093875;28;19922;-68
2023/11/01 06:26:07;;;;;;;;;;;9.10;75.20;;;;;;5092351;28;19920;-68
2023/11/01 06:28:34;;;;;;;;;;;9.10;75.20;;;;;;5093770;28;20312;-68
2023/11/01 06:30:59;;;;;;;;;;;9.10;75.20;;;;;;5093161;28;19997;-68
2023/11/01 06:33:25;;;;;;;;;;;9.10;74.60;;;;;;5092365;28;20416;-69
2023/11/01 06:35:51;;;;;;;;;;;9.20;74.90;;;;;;5093705;28;20015;-70
2023/11/01 06:38:17;;;;;;;;;;;9.30;75.00;;;;;;5092156;28;20361;-68
2023/11/01 06:40:43;;;;;;;;;;;9.30;74.90;;;;;;5092866;28;20399;-69
2023/11/01 06:43:09;;;;;;;;;;;9.40;74.70;;;;;;5092246;28;19912;-68
2023/11/01 06:45:38;;;;;;;;;;;9.50;74.70;;;;;;5093299;28;20002;-69
2023/11/01 06:48:04;;;;;;;;;;;9.50;74.80;;;;;;5093224;28;19941;-68
2023/11/01 06:50:29;;;;;;;;;;;9.60;74.60;;;;;;5091502;28;20017;-68
2023/11/01 06:52:55;;;;;;;;;;;9.70;74.70;;;;;;5091950;28;20033;-70
2023/11/01 06:55:21;;;;;;;;;;;9.70;74.50;;;;;;5092002;28;19916;-68
2023/11/01 06:57:47;;;;;;;;;;;9.80;74.10;;;;;;5093185;28;19920;-68
2023/11/01 07:00:14;;;;;;;;;;;9.90;73.90;;;;;;5091330;28;19918;-70
2023/11/01 07:02:40;;;;;;;;;;;9.90;73.40;;;;;;5091277;28;19919;-68
2023/11/01 07:05:06;;;;;;;;;;;10.00;73.80;;;;;;5091837;28;19961;-70
2023/11/01 07:07:32;;;;;;;;;;;10.10;73.60;;;;;;5093295;28;20419;-69
2023/11/01 07:09:59;;;;;;;;;;;10.20;73.30;;;;;;5091786;28;19923;-68
2023/11/01 07:12:25;;;;;;;;;;;10.20;73.00;;;;;;5074578;28;19920;-69
2023/11/01 07:14:51;;;;;;;;;;;10.40;73.20;;;;;;5091889;28;19922;-70
2023/11/01 07:17:16;;;;;;;;;;;10.40;72.60;;;;;;5092006;28;19920;-68
2023/11/01 07:19:42;;;;;;;;;;;10.40;72.50;;;;;;5092905;28;20265;-69
2023/11/01 07:22:08;;;;;;;;;;;10.50;72.50;;;;;;5092854;28;19919;-68
2023/11/01 07:24:34;;;;;;;;;;;10.50;72.20;;;;;;5091778;28;19912;-69
2023/11/01 07:27:00;;;;;;;;;;;10.60;71.80;;;;;;5092737;28;19926;-68
2023/11/01 07:29:26;;;;;;;;;;;10.60;72.10;;;;;;5092834;28;19912;-69
2023/11/01 07:31:52;;;;;;;;;;;10.60;71.70;;;;;;5092760;28;20006;-69
2023/11/01 07:34:17;;;;;;;;;;;10.70;71.70;;;;;;5091543;28;19951;-68
2023/11/01 07:36:43;;;;;;;;;;;10.70;71.10;;;;;;5091561;28;19944;-69
2023/11/01 07:39:09;;;;;;;;;;;10.80;70.90;;;;;;5092654;28;19947;-68
2023/11/01 07:41:36;;;;;;;;;;;10.90;70.70;;;;;;5073913;28;19973;-69
2023/11/01 07:44:02;;;;;;;;;;;11.00;70.30;;;;;;5092834;28;19912;-68
2023/11/01 07:46:28;;;;;;;;;;;11.10;69.80;;;;;;5074456;28;19924;-69
2023/11/01 07:48:54;;;;;;;;;;;11.20;69.60;;;;;;5074586;28;19956;-69
2023/11/01 07:51:21;;;;;;;;;;;11.30;69.50;;;;;;5092056;28;20391;-69
2023/11/01 07:53:47;;;;;;;;;;;11.40;69.10;;;;;;5092620;28;19916;-69
2023/11/01 07:56:12;;;;;;;;;;;11.30;68.00;;;;;;5091482;28;19924;-68
2023/11/01 07:58:38;;;;;;;;;;;11.20;67.60;;;;;;5091694;28;19912;-69
2023/11/01 08:01:05;;;;;;;;;;;11.20;68.40;;;;;;5090857;28;19920;-69
2023/11/01 08:03:34;;;;;;;;;;;11.40;68.50;;;;;;5074645;28;19961;-69
2023/11/01 08:06:01;;;;;;;;;;;11.40;68.40;;;;;;5074813;28;20640;-68
2023/11/01 08:08:27;;;;;;;;;;;11.50;68.10;;;;;;5091016;28;19959;-69
2023/11/01 08:10:52;;;;;;;;;;;11.60;68.20;;;;;;5091960;28;19920;-69
2023/11/01 08:13:18;;;;;;;;;;;11.70;68.40;;;;;;5092801;28;19956;-68
2023/11/01 08:15:44;;;;;;;;;;;11.80;68.00;;;;;;5096335;28;19927;-70
2023/11/01 08:18:10;;;;;;;;;;;11.90;67.80;;;;;;5096119;28;19931;-70
2023/11/01 08:20:37;;;;;;;;;;;12.00;67.80;;;;;;5095705;28;19958;-69
2023/11/01 08:23:02;;;;;;;;;;;12.00;67.40;;;;;;5096267;28;20005;-69
2023/11/01 08:25:28;;;;;;;;;;;12.10;67.70;;;;;;5096138;28;19920;-70
2023/11/01 08:27:54;;;;;;;;;;;12.20;67.50;;;;;;5094787;28;19916;-68
2023/11/01 08:30:20;;;;;;;;;;;12.30;66.20;;;;;;5099918;28;20010;-69
2023/11/01 08:32:46;;;;;;;;;;;12.20;66.20;;;;;;5098804;28;19920;-69
2023/11/01 08:35:12;;;;;;;;;;;12.20;66.10;;;;;;5096448;28;19918;-69
2023/11/01 08:37:38;;;;;;;;;;;12.30;66.70;;;;;;5107012;28;19943;-69
2023/11/01 08:40:05;;;;;;;;;;;12.30;65.80;;;;;;5111823;28;19928;-69
2023/11/01 08:42:31;;;;;;;;;;;12.40;66.50;;;;;;5105365;28;19964;-69
2023/11/01 08:44:57;;;;;;;;;;;12.50;66.30;;;;;;5103285;28;20427;-69
2023/11/01 08:47:42;;;;;;;;;;;12.60;66.00;;;;;;5095546;28;19923;-69
2023/11/01 08:50:12;;;;;;;;;;;12.70;66.10;;;;;;5110501;27;20346;-70
2023/11/01 08:52:50;;;;;;;;;;;12.80;66.00;;;;;;5104079;28;19916;-69
2023/11/01 08:55:16;;;;;;;;;;;12.90;65.80;;;;;;5095701;28;19920;-68
2023/11/01 08:57:46;;;;;;;;;;;12.90;66.00;;;;;;5094440;28;19916;-70
2023/11/01 09:00:13;;;;;;;;;;;13.00;65.80;;;;;;5099995;28;19923;-69
2023/11/01 09:02:39;;;;;;;;;;;13.00;65.40;;;;;;5090091;28;19962;-69
2023/11/01 09:05:06;;;;;;;;;;;13.10;65.30;;;;;;5102917;28;19959;-68
2023/11/01 09:07:32;;;;;;;;;;;13.20;65.20;;;;;;5114077;28;20022;-70
2023/11/01 09:09:58;;;;;;;;;;;13.20;65.70;;;;;;5115455;28;20292;-69
2023/11/01 09:12:24;;;;;;;;;;;13.30;65.70;;;;;;5115379;28;19923;-69
2023/11/01 09:14:50;;;;;;;;;;;13.40;65.70;;;;;;5097383;28;19916;-69
2023/11/01 09:17:17;;;;;;;;;;;13.40;65.50;;;;;;5115405;28;19939;-69
2023/11/01 09:19:43;;;;;;;;;;;13.50;65.20;;;;;;5113913;28;20019;-69
2023/11/01 09:22:09;;;;;;;;;;;13.40;63.70;;;;;;5113720;28;20320;-69
2023/11/01 09:24:35;;;;;;;;;;;13.30;64.50;;;;;;5113218;28;19955;-68
2023/11/01 09:27:02;;;;;;;;;;;13.20;64.70;;;;;;5097018;28;19970;-69
2023/11/01 09:29:28;;;;;;;;;;;13.20;64.70;;;;;;5114102;28;19960;-70
2023/11/01 09:31:54;;;;;;;;;;;13.20;64.40;;;;;;5114932;28;19915;-69
2023/11/01 09:34:23;;;;;;;;;;;13.30;64.60;;;;;;5113789;28;19920;-69
2023/11/01 09:36:49;;;;;;;;;;;13.30;64.50;;;;;;5112505;28;19962;-70
2023/11/01 09:39:15;;;;;;;;;;;13.40;64.40;;;;;;5099479;28;20018;-69
2023/11/01 09:41:48;;;;;;;;;;;13.50;64.50;;;;;;5076807;28;19920;-68
2023/11/01 09:44:32;;;;;;;;;;;13.50;64.30;;;;;;5094215;28;20277;-69
2023/11/01 09:46:58;;;;;;;;;;;13.50;64.50;;;;;;5097249;28;19924;-69
2023/11/01 09:49:24;;;;;;;;;;;13.40;64.70;;;;;;5096124;28;19912;-69
2023/11/01 09:51:51;;;;;;;;;;;13.40;64.80;;;;;;5113091;28;19919;-68
2023/11/01 09:54:17;;;;;;;;;;;13.40;64.90;;;;;;5113825;28;19929;-69
2023/11/01 09:56:45;;;;;;;;;;;13.50;65.10;;;;;;5113512;28;19920;-69
2023/11/01 09:59:12;;;;;;;;;;;13.60;65.00;;;;;;5113292;28;20384;-69
2023/11/01 10:01:39;;;;;;;;;;;13.70;65.10;;;;;;5095797;28;19919;-68
2023/11/01 10:04:06;;;;;;;;;;;13.70;65.10;;;;;;5113347;28;20003;-70
2023/11/01 10:06:35;;;;;;;;;;;13.80;64.90;;;;;;5096383;28;20461;-68
2023/11/01 10:09:01;;;;;;;;;;;13.90;64.80;;;;;;5112877;28;20280;-70
2023/11/01 10:11:28;;;;;;;;;;;14.10;64.60;;;;;;5113925;28;19923;-68
2023/11/01 10:13:54;;;;;;;;;;;14.00;64.50;;;;;;5114432;28;19954;-68
2023/11/01 10:16:20;;;;;;;;;;;14.10;64.60;;;;;;5112963;28;19946;-69
2023/11/01 10:18:48;;;;;;;;;;;14.20;64.50;;;;;;5114260;28;19915;-70
2023/11/01 10:21:14;;;;;;;;;;;14.30;64.30;;;;;;5112415;28;19966;-69
2023/11/01 10:23:39;;;;;;;;;;;14.40;64.30;;;;;;5113186;28;20356;-69
2023/11/01 10:26:05;;;;;;;;;;;14.50;64.20;;;;;;5111258;28;19968;-69
2023/11/01 10:28:50;;;;;;;;;;;14.60;63.80;;;;;;5101095;28;19920;-69
2023/11/01 10:31:16;;;;;;;;;;;14.50;63.80;;;;;;5092455;28;19923;-69
2023/11/01 10:33:44;;;;;;;;;;;14.40;63.80;;;;;;5093597;28;20041;-69
2023/11/01 10:36:10;;;;;;;;;;;14.40;63.90;;;;;;5092980;28;19990;-68
2023/11/01 10:38:37;;;;;;;;;;;14.60;63.90;;;;;;5093167;28;20375;-69
2023/11/01 10:41:04;;;;;;;;;;;14.80;62.90;;;;;;5093032;28;20411;-68
2023/11/01 10:43:30;;;;;;;;;;;14.90;63.00;;;;;;5092314;28;19911;-70
2023/11/01 10:45:58;;;;;;;;;;;14.90;63.20;;;;;;5093247;28;20276;-68
2023/11/01 10:48:27;;;;;;;;;;;15.10;62.80;;;;;;5092272;28;19912;-70
2023/11/01 10:50:56;;;;;;;;;;;15.20;61.90;;;;;;5092967;28;19959;-69
2023/11/01 10:53:23;;;;;;;;;;;15.10;61.60;;;;;;5093314;28;20330;-69
2023/11/01 10:56:08;;;;;;;;;;;15.00;61.80;;;;;;5093237;28;19920;-68
2023/11/01 10:58:40;;;;;;;;;;;14.90;62.10;;;;;;5075178;28;19912;-69
2023/11/01 11:01:43;;;;;;;;;;;14.90;62.20;;;;;;5091413;28;20323;-68
2023/11/01 11:04:46;;;;;;;;;;;15.00;62.60;;;;;;5093127;28;19995;-69
2023/11/01 11:07:50;;;;;;;;;;;15.10;62.60;;;;;;5091802;28;20303;-70
2023/11/01 11:10:25;;;;;;;;;;;15.20;61.60;;;;;;5092629;28;20335;-70
2023/11/01 11:18:40;;;;;;;;;;;15.40;61.60;;;;;;5091916;28;19920;-70
2023/11/01 11:21:06;;;;;;;;;;;15.20;61.90;;;;;;5092407;28;20414;-69
2023/11/01 11:23:33;;;;;;;;;;;15.20;62.10;;;;;;5092889;28;19916;-70
2023/11/01 11:26:01;;;;;;;;;;;15.10;62.10;;;;;;5092832;28;19931;-69
2023/11/01 11:28:47;;;;;;;;;;;15.00;62.60;;;;;;5074923;28;20018;-70
2023/11/01 11:31:32;;;;;;;;;;;14.90;62.90;;;;;;5090811;28;19923;-69
2023/11/01 11:34:17;;;;;;;;;;;14.90;63.20;;;;;;5088829;28;20573;-69
2023/11/01 11:37:21;;;;;;;;;;;15.00;63.00;;;;;;5091388;28;19923;-70
2023/11/01 11:40:07;;;;;;;;;;;15.20;62.10;;;;;;5092813;28;19918;-69
2023/11/01 11:42:41;;;;;;;;;;;15.50;61.90;;;;;;5091313;28;19927;-69
2023/11/01 11:45:12;;;;;;;;;;;15.70;61.00;;;;;;5092724;28;20372;-69
2023/11/01 11:47:38;;;;;;;;;;;15.80;58.90;;;;;;5092210;28;19967;-69
2023/11/01 11:50:22;;;;;;;;;;;15.90;60.30;;;;;;5095982;28;19919;-70
2023/11/01 11:52:48;;;;;;;;;;;15.90;60.00;;;;;;5099908;28;19919;-68
2023/11/01 11:55:14;;;;;;;;;;;15.90;60.30;;;;;;5088120;28;20276;-69
2023/11/01 11:57:40;;;;;;;;;;;15.90;60.40;;;;;;5095955;28;20034;-69
2023/11/01 12:00:08;;;;;;;;;;;15.80;60.90;;;;;;5096902;28;19916;-69
2023/11/01 12:02:34;;;;;;;;;;;15.60;61.20;;;;;;5095062;28;19917;-70
2023/11/01 12:05:02;;;;;;;;;;;15.80;61.10;;;;;;5078666;28;20014;-70
2023/11/01 12:07:28;;;;;;;;;;;16.20;60.10;;;;;;5095299;28;20014;-69
2023/11/01 12:09:56;;;;;;;;;;;16.40;58.80;;;;;;5095134;28;20414;-69
2023/11/01 12:12:23;;;;;;;;;;;16.40;59.20;;;;;;5077587;28;19930;-69
2023/11/01 12:15:08;;;;;;;;;;;16.40;59.10;;;;;;5095260;28;19912;-68
2023/11/01 12:17:34;;;;;;;;;;;16.40;59.10;;;;;;5096835;28;19920;-70
2023/11/01 12:20:01;;;;;;;;;;;16.70;58.80;;;;;;5094880;28;19919;-69
2023/11/01 12:22:27;;;;;;;;;;;16.90;58.00;;;;;;5094676;28;20265;-70
2023/11/01 12:24:55;;;;;;;;;;;17.30;57.30;;;;;;5078095;28;19953;-70
2023/11/01 12:27:29;;;;;;;;;;;17.80;56.10;;;;;;5094988;28;19985;-69
2023/11/01 12:29:56;;;;;;;;;;;17.80;55.50;;;;;;5094872;28;19973;-69
2023/11/01 12:32:21;;;;;;;;;;;17.70;55.60;;;;;;5093949;28;20289;-69
2023/11/01 12:34:48;;;;;;;;;;;17.60;56.00;;;;;;5094570;28;19919;-70
2023/11/01 12:37:33;;;;;;;;;;;17.50;55.80;;;;;;5096063;28;19924;-69
2023/11/01 12:40:04;;;;;;;;;;;17.60;56.30;;;;;;5095682;28;19935;-69
2023/11/01 12:42:32;;;;;;;;;;;17.60;56.10;;;;;;5095758;28;19927;-70
2023/11/01 12:44:58;;;;;;;;;;;17.80;56.30;;;;;;5094559;28;20395;-70
2023/11/01 12:47:27;;;;;;;;;;;18.10;56.20;;;;;;5096659;28;19955;-70
2023/11/01 12:49:54;;;;;;;;;;;18.40;55.30;;;;;;5102610;28;19967;-69
2023/11/01 12:52:20;;;;;;;;;;;18.60;54.50;;;;;;5108856;28;19920;-69
2023/11/01 12:54:46;;;;;;;;;;;18.60;53.80;;;;;;5093806;28;19912;-68
2023/11/01 12:57:13;;;;;;;;;;;18.70;53.90;;;;;;5094437;28;19924;-69
2023/11/01 12:59:40;;;;;;;;;;;18.90;53.60;;;;;;5092692;28;19951;-69
2023/11/01 13:02:07;;;;;;;;;;;19.10;53.10;;;;;;5093564;28;20018;-69
2023/11/01 13:04:33;;;;;;;;;;;19.20;52.50;;;;;;5094103;28;19911;-70
2023/11/01 13:06:59;;;;;;;;;;;19.50;51.30;;;;;;5077024;28;19919;-70
2023/11/01 13:09:26;;;;;;;;;;;20.10;50.50;;;;;;5095155;28;19919;-70
2023/11/01 13:11:52;;;;;;;;;;;21.10;47.90;;;;;;5094958;28;20461;-70
2023/11/01 13:14:19;;;;;;;;;;;21.80;45.20;;;;;;5093863;28;19935;-70
2023/11/01 13:16:45;;;;;;;;;;;22.30;43.10;;;;;;5094186;28;19920;-70
2023/11/01 13:19:11;;;;;;;;;;;22.50;41.80;;;;;;5095296;28;20344;-69
2023/11/01 13:21:39;;;;;;;;;;;22.30;42.80;;;;;;5093245;28;19965;-69
2023/11/01 13:24:06;;;;;;;;;;;22.30;42.00;;;;;;5093851;28;20387;-70
2023/11/01 13:26:32;;;;;;;;;;;22.20;42.70;;;;;;5093718;28;19943;-70
2023/11/01 13:28:58;;;;;;;;;;;22.10;44.10;;;;;;5093759;28;19916;-69
2023/11/01 13:31:26;;;;;;;;;;;22.50;42.80;;;;;;5092868;28;19920;-69
2023/11/01 13:33:52;;;;;;;;;;;22.70;40.30;;;;;;5093646;28;19916;-69
2023/11/01 13:36:17;;;;;;;;;;;22.80;40.70;;;;;;5094847;28;20162;-70
2023/11/01 13:38:43;;;;;;;;;;;23.10;40.50;;;;;;5093145;28;20368;-70
2023/11/01 13:41:10;;;;;;;;;;;23.20;39.60;;;;;;5094229;28;19920;-69
2023/11/01 13:43:35;;;;;;;;;;;23.00;40.50;;;;;;5094696;28;19915;-70
2023/11/01 13:46:02;;;;;;;;;;;23.00;39.20;;;;;;5093247;28;19976;-70
2023/11/01 13:48:29;;;;;;;;;;;23.00;39.90;;;;;;5093154;28;19912;-70
2023/11/01 13:50:55;;;;;;;;;;;22.60;40.70;;;;;;5092578;28;19920;-69
2023/11/01 13:53:21;;;;;;;;;;;22.30;41.40;;;;;;5076405;28;20357;-69
2023/11/01 13:55:49;;;;;;;;;;;21.80;42.40;;;;;;5094334;28;19928;-70
2023/11/01 13:58:16;;;;;;;;;;;21.40;42.90;;;;;;5092992;28;19919;-69
2023/11/01 14:00:42;;;;;;;;;;;20.90;43.40;;;;;;5075591;28;20293;-70
2023/11/01 14:03:09;;;;;;;;;;;20.60;44.70;;;;;;5093051;28;19912;-70
2023/11/01 14:05:47;;;;;;;;;;;20.20;45.80;;;;;;5094199;28;19958;-69
2023/11/01 14:08:13;;;;;;;;;;;19.80;46.80;;;;;;5092530;28;19916;-69
2023/11/01 14:10:39;;;;;;;;;;;19.60;47.80;;;;;;5093198;28;20342;-70
2023/11/01 14:13:06;;;;;;;;;;;19.30;48.50;;;;;;5075964;28;19916;-69
2023/11/01 14:15:33;;;;;;;;;;;19.10;49.10;;;;;;5092530;28;20344;-69
2023/11/01 14:20:44;;;;;;;;;;;18.80;49.70;;;;;;5095410;28;19976;-70
2023/11/01 14:23:09;;;;;;;;;;;18.70;50.30;;;;;;5099601;28;19999;-69
2023/11/01 14:25:35;;;;;;;;;;;18.60;50.50;;;;;;5092156;28;19999;-70
2023/11/01 14:28:01;;;;;;;;;;;18.50;51.00;;;;;;5095184;28;19919;-70
2023/11/01 14:30:27;;;;;;;;;;;18.30;51.10;;;;;;5103460;28;20456;-69
2023/11/01 14:32:53;;;;;;;;;;;18.20;51.30;;;;;;5094216;28;19946;-69